createdAt,value
2023-04-26T00:01:32.842Z,4.73
2023-04-26T00:04:03.804Z,4.75
2023-04-26T00:06:35.450Z,4.75
2023-04-26T00:09:04.509Z,4.73
2023-04-26T00:11:34.894Z,4.67
2023-04-26T00:14:04.459Z,4.55
2023-04-26T00:16:33.793Z,4.50
2023-04-26T00:19:02.898Z,4.52
2023-04-26T00:21:31.866Z,4.54
2023-04-26T00:24:01.248Z,4.52
2023-04-26T00:26:31.603Z,4.50
2023-04-26T00:29:03.603Z,4.45
2023-04-26T00:31:33.824Z,4.48
2023-04-26T00:34:03.824Z,4.44
2023-04-26T00:36:34.049Z,4.36
2023-04-26T00:39:03.935Z,4.31
2023-04-26T00:41:32.727Z,4.31
2023-04-26T00:44:03.889Z,4.30
2023-04-26T00:46:33.806Z,4.26
2023-04-26T00:49:04.281Z,4.19
2023-04-26T00:51:34.374Z,4.23
2023-04-26T00:54:04.622Z,4.19
2023-04-26T00:56:34.968Z,4.12
2023-04-26T00:59:06.171Z,4.13
2023-04-26T01:01:36.366Z,4.13
2023-04-26T01:04:06.626Z,4.11
2023-04-26T01:06:38.582Z,4.11
2023-04-26T01:09:10.061Z,4.14
2023-04-26T01:11:39.884Z,4.13
2023-04-26T01:14:11.883Z,4.02
2023-04-26T01:16:41.504Z,3.94
2023-04-26T01:19:13.819Z,3.93
2023-04-26T01:21:44.160Z,3.94
2023-04-26T01:24:16.277Z,3.95
2023-04-26T01:26:47.318Z,3.91
2023-04-26T01:29:21.381Z,3.91
2023-04-26T01:31:52.218Z,3.98
2023-04-26T01:34:22.465Z,3.88
2023-04-26T01:36:52.416Z,3.83
2023-04-26T01:39:24.501Z,3.80
2023-04-26T01:41:55.110Z,3.78
2023-04-26T01:44:25.124Z,3.70
2023-04-26T01:46:55.006Z,3.63
2023-04-26T01:49:24.466Z,3.62
2023-04-26T01:51:55.047Z,3.73
2023-04-26T01:54:25.992Z,3.73
2023-04-26T01:56:55.308Z,3.65
2023-04-26T01:59:26.367Z,3.59
2023-04-26T02:01:56.823Z,3.58
2023-04-26T02:04:26.546Z,3.49
2023-04-26T02:06:55.442Z,3.46
2023-04-26T02:09:26.255Z,3.41
2023-04-26T02:11:56.218Z,3.45
2023-04-26T02:14:26.327Z,3.42
2023-04-26T02:16:57.708Z,3.38
2023-04-26T02:19:28.309Z,3.33
2023-04-26T02:21:59.515Z,3.31
2023-04-26T02:24:30.578Z,3.30
2023-04-26T02:27:04.443Z,3.27
2023-04-26T02:29:43.134Z,3.24
2023-04-26T02:32:13.539Z,3.16
2023-04-26T02:34:43.168Z,3.18
2023-04-26T02:37:12.510Z,3.15
2023-04-26T02:39:43.812Z,3.18
2023-04-26T02:42:13.757Z,3.15
2023-04-26T02:44:43.345Z,3.16
2023-04-26T02:47:12.874Z,3.17
2023-04-26T02:49:43.256Z,3.15
2023-04-26T02:52:13.261Z,3.14
2023-04-26T02:54:45.172Z,3.14
2023-04-26T02:57:14.129Z,3.14
2023-04-26T02:59:44.429Z,3.10
2023-04-26T03:02:14.564Z,3.03
2023-04-26T03:04:44.654Z,3.01
2023-04-26T03:07:14.727Z,3.08
2023-04-26T03:09:46.326Z,3.09
2023-04-26T03:12:16.694Z,3.02
2023-04-26T03:14:46.082Z,3.01
2023-04-26T03:17:17.134Z,3.00
2023-04-26T03:19:46.603Z,2.95
2023-04-26T03:22:16.889Z,2.95
2023-04-26T03:24:48.516Z,3.01
2023-04-26T03:27:19.060Z,3.04
2023-04-26T03:29:48.112Z,3.05
2023-04-26T03:32:16.937Z,3.04
2023-04-26T03:34:49.340Z,2.95
2023-04-26T03:37:18.827Z,2.92
2023-04-26T03:39:51.401Z,2.93
2023-04-26T03:42:21.144Z,2.95
2023-04-26T03:44:51.095Z,2.94
2023-04-26T03:47:20.402Z,2.96
2023-04-26T03:49:50.435Z,3.00
2023-04-26T03:52:20.486Z,2.97
2023-04-26T03:54:52.426Z,2.99
2023-04-26T03:57:21.494Z,2.97
2023-04-26T03:59:51.504Z,2.93
2023-04-26T04:02:20.497Z,2.91
2023-04-26T04:04:51.164Z,2.92
2023-04-26T04:07:22.350Z,2.86
2023-04-26T04:09:53.085Z,2.85
2023-04-26T04:12:23.720Z,2.81
2023-04-26T04:14:54.494Z,2.80
2023-04-26T04:17:25.492Z,2.74
2023-04-26T04:19:55.379Z,2.75
2023-04-26T04:22:26.011Z,2.73
2023-04-26T04:24:57.132Z,2.77
2023-04-26T04:27:26.703Z,2.75
2023-04-26T04:29:56.744Z,2.75
2023-04-26T04:32:25.702Z,2.70
2023-04-26T04:34:55.798Z,2.73
2023-04-26T04:37:26.297Z,2.69
2023-04-26T04:39:57.350Z,2.71
2023-04-26T04:42:27.921Z,2.72
2023-04-26T04:45:00.049Z,2.74
2023-04-26T04:47:29.009Z,2.73
2023-04-26T04:50:00.448Z,2.71
2023-04-26T04:52:30.335Z,2.71
2023-04-26T04:55:01.758Z,2.75
2023-04-26T04:57:33.029Z,2.71
2023-04-26T05:00:10.594Z,2.71
2023-04-26T05:02:41.302Z,2.67
2023-04-26T05:05:11.936Z,2.65
2023-04-26T05:07:41.536Z,2.67
2023-04-26T05:10:15.075Z,2.66
2023-04-26T05:12:45.044Z,2.68
2023-04-26T05:15:15.608Z,2.71
2023-04-26T05:17:44.945Z,2.74
2023-04-26T05:20:15.981Z,2.76
2023-04-26T05:22:45.156Z,2.78
2023-04-26T05:25:17.909Z,2.82
2023-04-26T05:27:48.001Z,2.80
2023-04-26T05:30:17.957Z,2.78
2023-04-26T05:32:46.830Z,2.80
2023-04-26T05:35:16.820Z,2.82
2023-04-26T05:37:46.977Z,2.82
2023-04-26T05:40:19.572Z,2.88
2023-04-26T05:42:49.140Z,2.89
2023-04-26T05:45:20.214Z,2.93
2023-04-26T05:47:49.873Z,2.93
2023-04-26T05:50:20.025Z,2.95
2023-04-26T05:52:49.582Z,2.99
2023-04-26T05:55:21.513Z,3.00
2023-04-26T05:57:51.492Z,3.01
2023-04-26T06:00:24.145Z,3.07
2023-04-26T06:02:54.796Z,3.10
2023-04-26T06:05:25.459Z,3.12
2023-04-26T06:07:55.951Z,3.18
2023-04-26T06:10:27.657Z,3.28
2023-04-26T06:12:57.502Z,3.34
2023-04-26T06:15:28.398Z,3.38
2023-04-26T06:17:57.968Z,3.43
2023-04-26T06:20:28.385Z,3.51
2023-04-26T06:22:58.429Z,3.59
2023-04-26T06:25:29.882Z,3.62
2023-04-26T06:28:00.147Z,3.67
2023-04-26T06:30:30.642Z,3.74
2023-04-26T06:33:01.769Z,3.78
2023-04-26T06:35:32.382Z,3.89
2023-04-26T06:38:02.713Z,3.97
2023-04-26T06:40:35.882Z,4.02
2023-04-26T06:43:05.942Z,4.07
2023-04-26T06:45:34.960Z,4.17
2023-04-26T06:48:05.870Z,4.21
2023-04-26T06:50:39.367Z,4.30
2023-04-26T06:53:10.673Z,4.41
2023-04-26T06:55:41.392Z,4.50
2023-04-26T06:58:11.698Z,4.55
2023-04-26T07:00:41.820Z,4.62
2023-04-26T07:03:12.978Z,4.70
2023-04-26T07:05:41.678Z,4.80
2023-04-26T07:08:11.873Z,4.87
2023-04-26T07:10:44.857Z,4.93
2023-04-26T07:13:16.012Z,5.02
2023-04-26T07:15:46.255Z,5.11
2023-04-26T07:18:15.805Z,5.20
2023-04-26T07:20:45.857Z,5.28
2023-04-26T07:23:16.289Z,5.37
2023-04-26T07:25:47.583Z,5.46
2023-04-26T07:28:18.596Z,5.54
2023-04-26T07:30:48.201Z,5.62
2023-04-26T07:33:17.314Z,5.68
2023-04-26T07:35:47.210Z,5.74
2023-04-26T07:38:20.150Z,5.80
2023-04-26T07:40:52.439Z,5.87
2023-04-26T07:43:23.257Z,5.93
2023-04-26T07:45:53.089Z,5.99
2023-04-26T07:48:23.562Z,6.04
2023-04-26T07:50:53.563Z,6.10
2023-04-26T07:53:23.411Z,6.14
2023-04-26T07:55:54.548Z,6.23
2023-04-26T07:58:24.988Z,6.29
2023-04-26T08:00:55.221Z,6.34
2023-04-26T08:03:27.926Z,6.42
2023-04-26T08:05:59.807Z,6.50
2023-04-26T08:08:30.136Z,6.58
2023-04-26T08:11:00.538Z,6.68
2023-04-26T08:13:30.802Z,6.76
2023-04-26T08:16:00.400Z,6.87
2023-04-26T08:18:30.063Z,6.97
2023-04-26T08:20:59.428Z,7.07
2023-04-26T08:23:30.499Z,7.16
2023-04-26T08:26:02.932Z,7.26
2023-04-26T08:28:32.151Z,7.35
2023-04-26T08:31:01.647Z,7.42
2023-04-26T08:33:32.232Z,7.50
2023-04-26T08:36:02.167Z,7.59
2023-04-26T08:38:33.219Z,7.65
2023-04-26T08:41:07.374Z,7.74
2023-04-26T08:43:39.786Z,7.82
2023-04-26T08:46:17.495Z,7.94
2023-04-26T08:49:01.767Z,8.03
2023-04-26T08:51:33.301Z,8.10
2023-04-26T08:54:05.439Z,8.17
2023-04-26T08:56:37.114Z,8.25
2023-04-26T08:59:06.812Z,8.31
2023-04-26T09:01:38.869Z,8.38
2023-04-26T09:04:11.147Z,8.41
2023-04-26T09:06:42.208Z,8.45
2023-04-26T09:09:15.345Z,8.48
2023-04-26T09:12:01.102Z,8.56
2023-04-26T09:14:31.526Z,8.63
2023-04-26T09:17:01.733Z,8.68
2023-04-26T09:19:39.189Z,8.74
2023-04-26T09:22:09.815Z,8.80
2023-04-26T09:24:53.212Z,8.85
2023-04-26T09:27:23.566Z,8.93
2023-04-26T09:30:06.578Z,9.00
2023-04-26T09:33:11.993Z,9.04
2023-04-26T09:35:44.219Z,9.09
2023-04-26T09:38:15.748Z,9.12
2023-04-26T09:40:47.678Z,9.18
2023-04-26T09:43:20.428Z,9.22
2023-04-26T09:45:52.387Z,9.29
2023-04-26T09:48:22.945Z,9.37
2023-04-26T09:50:54.772Z,9.43
2023-04-26T09:53:33.999Z,9.49
2023-04-26T09:56:11.074Z,9.57
2023-04-26T09:58:59.306Z,9.62
2023-04-26T10:01:31.448Z,9.70
2023-04-26T10:04:03.296Z,9.74
2023-04-26T10:06:34.060Z,9.80
2023-04-26T10:09:06.425Z,9.78
2023-04-26T10:11:38.904Z,9.82
2023-04-26T10:14:09.846Z,9.82
2023-04-26T10:16:41.870Z,9.78
2023-04-26T10:19:12.017Z,9.86
2023-04-26T10:21:43.844Z,9.91
2023-04-26T10:24:13.792Z,9.98
2023-04-26T10:26:52.209Z,10.04
2023-04-26T10:29:24.712Z,10.11
2023-04-26T10:32:12.542Z,10.16
2023-04-26T10:34:42.051Z,10.19
2023-04-26T10:37:15.093Z,10.20
2023-04-26T10:39:45.814Z,10.21
2023-04-26T10:42:28.029Z,10.25
2023-04-26T10:45:00.376Z,10.29
2023-04-26T10:47:34.902Z,10.34
2023-04-26T10:50:07.458Z,10.39
2023-04-26T10:52:38.720Z,10.43
2023-04-26T10:55:10.430Z,10.52
2023-04-26T10:57:52.594Z,10.57
2023-04-26T11:00:32.623Z,10.59
2023-04-26T11:03:07.607Z,10.52
2023-04-26T11:05:55.997Z,10.55
2023-04-26T11:08:32.022Z,10.63
2023-04-26T11:11:11.840Z,10.68
2023-04-26T11:13:42.962Z,10.77
2023-04-26T11:16:15.151Z,10.72
2023-04-26T11:18:46.685Z,10.75
2023-04-26T11:21:20.270Z,10.80
2023-04-26T11:23:56.479Z,10.86
2023-04-26T11:26:34.049Z,10.92
2023-04-26T11:29:03.577Z,10.90
2023-04-26T11:31:37.068Z,10.92
2023-04-26T11:34:06.858Z,10.94
2023-04-26T11:36:41.451Z,11.00
2023-04-26T11:39:14.093Z,11.06
2023-04-26T11:41:43.744Z,11.11
2023-04-26T11:44:13.269Z,11.18
2023-04-26T11:46:45.672Z,11.17
2023-04-26T11:49:16.410Z,11.22
2023-04-26T11:51:49.769Z,11.23
2023-04-26T11:54:31.556Z,11.28
2023-04-26T11:57:03.436Z,11.33
2023-04-26T11:59:33.002Z,11.35
2023-04-26T12:02:09.015Z,11.41
2023-04-26T12:04:40.625Z,11.56
2023-04-26T12:07:11.636Z,11.66
2023-04-26T12:09:43.564Z,11.68
2023-04-26T12:12:14.423Z,11.73
2023-04-26T12:14:46.054Z,11.81
2023-04-26T12:17:16.991Z,11.87
2023-04-26T12:19:51.235Z,11.93
2023-04-26T12:22:23.623Z,11.95
2023-04-26T12:25:06.685Z,12.02
2023-04-26T12:27:36.147Z,11.97
2023-04-26T12:30:09.432Z,12.06
2023-04-26T12:32:39.686Z,12.17
2023-04-26T12:35:11.161Z,12.24
2023-04-26T12:37:41.172Z,12.23
2023-04-26T12:40:13.590Z,12.32
2023-04-26T12:42:42.714Z,12.41
2023-04-26T12:45:13.013Z,12.45
2023-04-26T12:47:43.527Z,12.44
2023-04-26T12:50:14.447Z,12.48
2023-04-26T12:52:47.562Z,12.60
2023-04-26T12:55:18.596Z,12.72
2023-04-26T12:57:48.171Z,12.75
2023-04-26T13:00:19.477Z,12.74
2023-04-26T13:02:50.001Z,12.80
2023-04-26T13:05:18.966Z,12.82
2023-04-26T13:07:48.018Z,12.85
2023-04-26T13:10:18.020Z,12.88
2023-04-26T13:12:48.194Z,13.00
2023-04-26T13:15:17.960Z,12.95
2023-04-26T13:17:48.717Z,13.01
2023-04-26T13:20:18.768Z,13.00
2023-04-26T13:22:47.772Z,12.99
2023-04-26T13:25:19.128Z,13.02
2023-04-26T13:27:48.108Z,13.02
2023-04-26T13:30:18.130Z,13.06
2023-04-26T13:32:49.617Z,13.12
2023-04-26T13:35:19.166Z,13.15
2023-04-26T13:37:49.322Z,13.21
2023-04-26T13:40:19.304Z,13.26
2023-04-26T13:42:49.194Z,13.29
2023-04-26T13:45:19.389Z,13.37
2023-04-26T13:47:50.923Z,13.39
2023-04-26T13:50:20.832Z,13.43
2023-04-26T13:52:52.573Z,13.47
2023-04-26T13:55:21.303Z,13.51
2023-04-26T13:57:51.762Z,13.58
2023-04-26T14:00:24.753Z,13.69
2023-04-26T14:02:56.698Z,13.80
2023-04-26T14:05:26.890Z,13.89
2023-04-26T14:07:57.202Z,13.99
2023-04-26T14:10:27.331Z,14.09
2023-04-26T14:12:56.681Z,14.10
2023-04-26T14:15:27.529Z,14.13
2023-04-26T14:17:58.762Z,14.18
2023-04-26T14:20:28.304Z,14.27
2023-04-26T14:23:00.192Z,14.28
2023-04-26T14:25:31.520Z,14.34
2023-04-26T14:28:03.110Z,14.29
2023-04-26T14:30:32.843Z,14.28
2023-04-26T14:33:04.988Z,14.28
2023-04-26T14:35:34.546Z,14.27
2023-04-26T14:38:03.764Z,14.25
2023-04-26T14:40:32.808Z,14.26
2023-04-26T14:43:02.781Z,14.25
2023-04-26T14:45:44.088Z,14.23
2023-04-26T14:48:16.161Z,14.28
2023-04-26T14:50:45.826Z,14.45
2023-04-26T14:53:15.789Z,14.50
2023-04-26T14:55:45.770Z,14.53
2023-04-26T14:58:16.366Z,14.49
2023-04-26T15:00:46.278Z,14.43
2023-04-26T15:03:17.709Z,14.42
2023-04-26T15:05:47.259Z,14.41
2023-04-26T15:08:16.491Z,14.35
2023-04-26T15:10:46.782Z,14.35
2023-04-26T15:13:16.223Z,14.26
2023-04-26T15:15:46.992Z,14.22
2023-04-26T15:18:18.013Z,14.13
2023-04-26T15:20:48.229Z,14.14
2023-04-26T15:23:19.181Z,14.08
2023-04-26T15:25:48.986Z,14.11
2023-04-26T15:28:18.691Z,14.17
2023-04-26T15:30:49.083Z,14.16
2023-04-26T15:33:20.008Z,14.14
2023-04-26T15:35:52.364Z,14.15
2023-04-26T15:38:23.087Z,14.21
2023-04-26T15:40:52.431Z,14.30
2023-04-26T15:43:22.609Z,14.38
2023-04-26T15:45:53.099Z,14.44
2023-04-26T15:48:26.025Z,14.53
2023-04-26T15:50:56.986Z,14.60
2023-04-26T15:53:26.991Z,14.61
2023-04-26T15:55:57.595Z,14.52
2023-04-26T15:58:27.424Z,14.63
2023-04-26T16:00:56.631Z,14.70
2023-04-26T16:03:28.560Z,14.79
2023-04-26T16:05:58.382Z,14.79
2023-04-26T16:08:39.253Z,14.84
2023-04-26T16:11:09.027Z,14.79
2023-04-26T16:13:39.043Z,14.77
2023-04-26T16:16:11.272Z,14.63
2023-04-26T16:18:44.315Z,14.57
2023-04-26T16:21:14.176Z,14.56
2023-04-26T16:23:43.464Z,14.56
2023-04-26T16:26:14.379Z,14.50
2023-04-26T16:28:42.766Z,14.48
2023-04-26T16:31:11.820Z,14.48
2023-04-26T16:33:42.758Z,14.38
2023-04-26T16:36:12.167Z,14.33
2023-04-26T16:38:42.372Z,14.23
2023-04-26T16:41:11.853Z,14.14
2023-04-26T16:43:41.803Z,14.17
2023-04-26T16:46:10.872Z,14.09
2023-04-26T16:48:42.709Z,14.01
2023-04-26T16:51:13.131Z,13.98
2023-04-26T16:53:43.490Z,13.93
2023-04-26T16:56:13.022Z,13.90
2023-04-26T16:58:42.713Z,13.94
2023-04-26T17:01:11.915Z,13.96
2023-04-26T17:03:42.523Z,13.96
2023-04-26T17:06:13.618Z,13.96
2023-04-26T17:08:42.984Z,13.98
2023-04-26T17:11:15.073Z,13.95
2023-04-26T17:13:44.267Z,13.92
2023-04-26T17:16:14.551Z,13.85
2023-04-26T17:18:46.963Z,13.78
2023-04-26T17:21:15.941Z,13.81
2023-04-26T17:23:45.319Z,13.80
2023-04-26T17:26:14.856Z,13.77
2023-04-26T17:28:43.228Z,13.73
2023-04-26T17:31:13.166Z,13.72
2023-04-26T17:33:43.709Z,13.64
2023-04-26T17:36:14.542Z,13.68
2023-04-26T17:38:43.782Z,13.64
2023-04-26T17:41:14.499Z,13.61
2023-04-26T17:43:44.341Z,13.59
2023-04-26T17:46:14.795Z,13.55
2023-04-26T17:48:44.305Z,13.55
2023-04-26T17:51:15.267Z,13.55
2023-04-26T17:53:44.347Z,13.57
2023-04-26T17:56:14.283Z,13.53
2023-04-26T17:58:44.254Z,13.48
2023-04-26T18:01:14.449Z,13.40
2023-04-26T18:03:44.415Z,13.36
2023-04-26T18:06:16.285Z,13.32
2023-04-26T18:08:46.086Z,13.31
2023-04-26T18:11:16.423Z,13.25
2023-04-26T18:13:45.570Z,13.21
2023-04-26T18:16:17.516Z,13.19
2023-04-26T18:18:46.506Z,13.08
2023-04-26T18:21:17.867Z,13.01
2023-04-26T18:23:48.435Z,13.01
2023-04-26T18:26:17.910Z,12.96
2023-04-26T18:28:47.998Z,12.91
2023-04-26T18:31:18.236Z,12.87
2023-04-26T18:33:48.349Z,12.76
2023-04-26T18:36:19.229Z,12.73
2023-04-26T18:38:48.656Z,12.65
2023-04-26T18:41:18.664Z,12.61
2023-04-26T18:43:47.810Z,12.54
2023-04-26T18:46:18.641Z,12.51
2023-04-26T18:48:47.404Z,12.46
2023-04-26T18:51:17.648Z,12.43
2023-04-26T18:53:47.493Z,12.34
2023-04-26T18:56:16.550Z,12.28
2023-04-26T18:58:47.028Z,12.22
2023-04-26T19:01:17.656Z,12.19
2023-04-26T19:03:46.399Z,12.15
2023-04-26T19:06:17.247Z,12.08
2023-04-26T19:08:48.428Z,12.03
2023-04-26T19:11:18.620Z,11.95
2023-04-26T19:13:47.493Z,11.88
2023-04-26T19:16:18.712Z,11.83
2023-04-26T19:18:49.735Z,11.76
2023-04-26T19:21:20.672Z,11.70
2023-04-26T19:23:52.250Z,11.63
2023-04-26T19:26:22.958Z,11.56
2023-04-26T19:28:52.363Z,11.50
2023-04-26T19:31:22.547Z,11.46
2023-04-26T19:33:52.615Z,11.38
2023-04-26T19:36:22.197Z,11.28
2023-04-26T19:38:52.238Z,11.17
2023-04-26T19:41:21.850Z,11.17
2023-04-26T19:43:51.816Z,11.14
2023-04-26T19:46:21.736Z,11.07
2023-04-26T19:48:51.354Z,11.04
2023-04-26T19:51:20.838Z,10.99
2023-04-26T19:53:51.621Z,10.95
2023-04-26T19:56:21.512Z,10.93
2023-04-26T19:58:50.541Z,10.93
2023-04-26T20:01:21.364Z,10.87
2023-04-26T20:03:49.880Z,10.79
2023-04-26T20:06:19.407Z,10.79
2023-04-26T20:08:49.174Z,10.71
2023-04-26T20:11:20.129Z,10.67
2023-04-26T20:13:50.002Z,10.64
2023-04-26T20:16:19.039Z,10.60
2023-04-26T20:18:48.464Z,10.51
2023-04-26T20:21:18.443Z,10.50
2023-04-26T20:23:47.406Z,10.45
2023-04-26T20:26:18.652Z,10.41
2023-04-26T20:28:50.100Z,10.36
2023-04-26T20:31:19.715Z,10.32
2023-04-26T20:33:50.758Z,10.29
2023-04-26T20:36:20.739Z,10.23
2023-04-26T20:38:51.678Z,10.18
2023-04-26T20:41:22.454Z,10.08
2023-04-26T20:43:53.776Z,9.96
2023-04-26T20:46:23.549Z,9.94
2023-04-26T20:48:53.037Z,9.90
2023-04-26T20:51:22.581Z,9.86
2023-04-26T20:53:52.563Z,9.81
2023-04-26T20:56:24.208Z,9.80
2023-04-26T20:58:54.628Z,9.77
2023-04-26T21:01:24.587Z,9.71
2023-04-26T21:03:54.076Z,9.69
2023-04-26T21:06:23.511Z,9.66
2023-04-26T21:08:53.033Z,9.60
2023-04-26T21:11:24.384Z,9.56
2023-04-26T21:13:54.793Z,9.54
2023-04-26T21:16:25.277Z,9.45
2023-04-26T21:18:54.774Z,9.39
2023-04-26T21:21:26.985Z,9.36
2023-04-26T21:23:58.180Z,9.29
2023-04-26T21:26:29.658Z,9.27
2023-04-26T21:28:58.695Z,9.28
2023-04-26T21:31:28.780Z,9.23
2023-04-26T21:33:58.462Z,9.20
2023-04-26T21:36:28.912Z,9.09
2023-04-26T21:38:57.847Z,9.09
2023-04-26T21:41:29.462Z,9.02
2023-04-26T21:43:59.861Z,9.03
2023-04-26T21:46:29.427Z,9.01
2023-04-26T21:48:59.279Z,8.93
2023-04-26T21:51:28.915Z,8.89
2023-04-26T21:53:58.817Z,8.86
2023-04-26T21:56:29.261Z,8.86
2023-04-26T21:58:59.631Z,8.83
2023-04-26T22:01:29.651Z,8.82
2023-04-26T22:03:59.222Z,8.70
2023-04-26T22:06:30.027Z,8.71
2023-04-26T22:09:00.047Z,8.65
2023-04-26T22:11:31.499Z,8.65
2023-04-26T22:14:01.548Z,8.55
2023-04-26T22:16:32.545Z,8.52
2023-04-26T22:19:03.266Z,8.43
2023-04-26T22:21:33.057Z,8.43
2023-04-26T22:24:03.758Z,8.41
2023-04-26T22:26:35.273Z,8.39
2023-04-26T22:29:05.228Z,8.37
2023-04-26T22:31:34.803Z,8.27
2023-04-26T22:34:04.226Z,8.24
2023-04-26T22:36:34.404Z,8.19
2023-04-26T22:39:03.887Z,8.13
2023-04-26T22:41:34.065Z,8.05
2023-04-26T22:44:04.906Z,8.01
2023-04-26T22:46:35.565Z,7.92
2023-04-26T22:49:05.211Z,7.85
2023-04-26T22:51:35.549Z,7.81
2023-04-26T22:54:05.466Z,7.77
2023-04-26T22:56:36.317Z,7.73
2023-04-26T22:59:05.740Z,7.70
2023-04-26T23:01:37.313Z,7.70
2023-04-26T23:04:08.034Z,7.63
2023-04-26T23:06:38.061Z,7.58
2023-04-26T23:09:08.378Z,7.55
2023-04-26T23:11:39.900Z,7.55
2023-04-26T23:14:08.293Z,7.53
2023-04-26T23:16:39.140Z,7.46
2023-04-26T23:19:10.347Z,7.40
2023-04-26T23:21:39.744Z,7.36
2023-04-26T23:24:10.106Z,7.33
2023-04-26T23:26:40.896Z,7.32
2023-04-26T23:29:09.786Z,7.27
2023-04-26T23:31:40.447Z,7.20
2023-04-26T23:34:09.931Z,7.23
2023-04-26T23:36:39.970Z,7.26
2023-04-26T23:39:10.475Z,7.26
2023-04-26T23:41:41.858Z,7.20
2023-04-26T23:44:10.332Z,7.16
2023-04-26T23:46:40.865Z,7.09
2023-04-26T23:49:10.507Z,7.02
2023-04-26T23:51:40.781Z,6.95
2023-04-26T23:54:10.302Z,6.89
2023-04-26T23:56:42.340Z,6.87
2023-04-26T23:59:11.396Z,6.85
